createdAt,value
2023-07-27T00:04:17.505Z,12.40
2023-07-27T00:09:10.834Z,12.40
2023-07-27T00:14:04.199Z,12.40
2023-07-27T00:18:57.515Z,12.50
2023-07-27T00:23:52.229Z,12.60
2023-07-27T00:28:45.592Z,12.40
2023-07-27T00:33:38.930Z,12.30
2023-07-27T00:38:32.291Z,12.20
2023-07-27T00:43:27.020Z,12.20
2023-07-27T00:48:21.239Z,12.30
2023-07-27T00:53:16.975Z,12.40
2023-07-27T00:58:10.940Z,12.30
2023-07-27T01:03:06.687Z,12.10
2023-07-27T01:08:00.042Z,12.10
2023-07-27T01:13:04.937Z,12.10
2023-07-27T01:18:09.696Z,12.10
2023-07-27T01:23:40.417Z,12.10
2023-07-27T01:28:59.817Z,11.90
2023-07-27T01:34:02.079Z,11.80
2023-07-27T01:39:01.251Z,11.80
2023-07-27T01:43:55.545Z,11.80
2023-07-27T01:48:52.284Z,11.90
2023-07-27T01:53:50.122Z,12.00
2023-07-27T01:58:44.774Z,11.90
2023-07-27T02:03:38.816Z,11.80
2023-07-27T02:08:32.269Z,11.70
2023-07-27T02:13:35.515Z,11.60
2023-07-27T02:18:32.096Z,11.60
2023-07-27T02:23:26.522Z,11.80
2023-07-27T02:28:19.795Z,11.70
2023-07-27T02:33:14.501Z,11.70
2023-07-27T02:38:07.797Z,11.70
2023-07-27T02:43:01.169Z,11.60
2023-07-27T02:47:54.478Z,11.60
2023-07-27T02:52:49.225Z,11.70
2023-07-27T02:57:42.531Z,11.70
2023-07-27T03:02:35.952Z,11.60
2023-07-27T03:07:29.378Z,11.70
2023-07-27T03:12:24.062Z,11.90
2023-07-27T03:17:17.451Z,11.70
2023-07-27T03:22:10.782Z,11.50
2023-07-27T03:27:04.151Z,11.30
2023-07-27T03:31:58.759Z,11.40
2023-07-27T03:36:52.039Z,11.60
2023-07-27T03:41:45.428Z,11.90
2023-07-27T03:46:38.796Z,12.00
2023-07-27T03:51:33.451Z,12.00
2023-07-27T03:56:26.792Z,12.00
2023-07-27T04:01:20.676Z,11.90
2023-07-27T04:06:13.965Z,11.80
2023-07-27T04:11:08.647Z,11.70
2023-07-27T04:16:01.965Z,11.50
2023-07-27T04:20:55.325Z,11.70
2023-07-27T04:25:48.590Z,11.80
2023-07-27T04:30:43.454Z,11.90
2023-07-27T04:35:36.751Z,11.90
2023-07-27T04:40:30.078Z,12.00
2023-07-27T04:45:23.423Z,12.10
2023-07-27T04:50:18.276Z,12.20
2023-07-27T04:55:11.560Z,12.30
2023-07-27T05:00:06.193Z,12.20
2023-07-27T05:04:59.521Z,12.20
2023-07-27T05:09:54.399Z,12.10
2023-07-27T05:14:47.692Z,12.10
2023-07-27T05:19:41.065Z,12.20
2023-07-27T05:24:34.476Z,12.40
2023-07-27T05:29:29.211Z,12.70
2023-07-27T05:34:22.484Z,13.00
2023-07-27T05:39:15.836Z,13.10
2023-07-27T05:44:09.290Z,13.20
2023-07-27T05:49:06.978Z,13.20
2023-07-27T05:54:01.733Z,13.20
2023-07-27T05:58:55.092Z,13.30
2023-07-27T06:04:05.340Z,13.20
2023-07-27T06:09:01.811Z,13.30
2023-07-27T06:13:55.134Z,13.30
2023-07-27T06:18:48.734Z,13.40
2023-07-27T06:23:42.064Z,13.40
2023-07-27T06:28:37.444Z,13.40
2023-07-27T06:33:30.962Z,13.50
2023-07-27T06:38:24.399Z,13.50
2023-07-27T06:43:17.744Z,13.50
2023-07-27T06:48:12.656Z,13.50
2023-07-27T06:53:06.105Z,13.50
2023-07-27T06:57:59.407Z,13.50
2023-07-27T07:02:52.983Z,13.50
2023-07-27T07:07:47.840Z,13.60
2023-07-27T07:12:41.296Z,13.70
2023-07-27T07:17:34.925Z,13.80
2023-07-27T07:22:28.339Z,13.90
2023-07-27T07:27:23.083Z,14.00
2023-07-27T07:32:16.427Z,14.10
2023-07-27T07:37:23.028Z,14.10
2023-07-27T07:42:16.437Z,14.10
2023-07-27T07:47:11.203Z,14.10
2023-07-27T07:52:04.792Z,14.20
2023-07-27T07:56:58.417Z,14.20
2023-07-27T08:01:52.006Z,14.20
2023-07-27T08:06:47.066Z,14.20
2023-07-27T08:11:42.680Z,14.20
2023-07-27T08:16:36.640Z,14.40
2023-07-27T08:21:30.738Z,14.40
2023-07-27T08:26:26.866Z,14.50
2023-07-27T08:31:20.295Z,14.60
2023-07-27T08:36:13.676Z,14.60
2023-07-27T08:41:07.090Z,14.60
2023-07-27T08:46:02.203Z,14.50
2023-07-27T08:50:56.823Z,14.70
2023-07-27T08:55:50.247Z,14.90
2023-07-27T09:00:44.015Z,15.00
2023-07-27T09:05:44.007Z,15.30
2023-07-27T09:10:38.443Z,15.60
2023-07-27T09:15:32.313Z,16.00
2023-07-27T09:20:25.685Z,16.40
2023-07-27T09:25:23.570Z,16.70
2023-07-27T09:30:19.442Z,16.80
2023-07-27T09:35:15.818Z,16.80
2023-07-27T09:40:11.951Z,16.80
2023-07-27T09:45:08.135Z,17.00
2023-07-27T09:50:02.040Z,17.00
2023-07-27T09:54:58.387Z,17.20
2023-07-27T09:59:53.720Z,17.40
2023-07-27T10:04:51.115Z,17.90
2023-07-27T10:09:44.608Z,18.30
2023-07-27T10:14:41.837Z,18.50
2023-07-27T10:19:43.369Z,18.60
2023-07-27T10:24:51.489Z,19.00
2023-07-27T10:29:50.225Z,19.50
2023-07-27T10:34:43.673Z,20.10
2023-07-27T10:39:45.828Z,20.20
2023-07-27T10:44:47.802Z,20.20
2023-07-27T10:49:42.927Z,20.00
2023-07-27T10:54:42.097Z,20.20
2023-07-27T10:59:40.468Z,20.40
2023-07-27T11:04:36.971Z,20.60
2023-07-27T11:09:30.309Z,20.60
2023-07-27T11:14:23.629Z,20.60
2023-07-27T11:19:17.249Z,20.90
2023-07-27T11:24:12.328Z,21.00
2023-07-27T11:29:05.878Z,20.80
2023-07-27T11:34:00.921Z,20.70
2023-07-27T11:38:54.342Z,20.60
2023-07-27T11:43:53.460Z,20.40
2023-07-27T11:48:50.700Z,20.40
2023-07-27T11:53:55.301Z,20.30
2023-07-27T11:58:50.054Z,20.10
2023-07-27T12:03:47.013Z,19.90
2023-07-27T12:23:33.291Z,19.90
2023-07-27T12:43:14.812Z,20.10
2023-07-27T12:48:08.782Z,20.10
2023-07-27T12:53:02.284Z,20.30
2023-07-27T12:57:57.061Z,20.30
2023-07-27T13:02:50.420Z,20.40
2023-07-27T13:07:45.751Z,20.50
2023-07-27T13:12:39.212Z,20.70
2023-07-27T13:17:35.054Z,20.80
2023-07-27T13:22:28.592Z,20.80
2023-07-27T13:27:23.118Z,20.90
2023-07-27T13:32:16.466Z,20.90
2023-07-27T13:37:11.176Z,20.80
2023-07-27T13:42:04.759Z,21.00
2023-07-27T13:46:58.062Z,21.00
2023-07-27T13:51:51.551Z,21.10
2023-07-27T13:56:46.209Z,21.30
2023-07-27T14:01:39.712Z,21.20
2023-07-27T14:06:33.184Z,21.20
2023-07-27T14:11:26.678Z,21.20
2023-07-27T14:16:24.617Z,21.20
2023-07-27T14:21:18.007Z,21.10
2023-07-27T14:26:12.710Z,21.30
2023-07-27T14:31:13.547Z,21.50
2023-07-27T14:36:08.914Z,21.50
2023-07-27T14:41:02.255Z,21.40
2023-07-27T14:45:55.657Z,21.40
2023-07-27T14:50:49.466Z,21.40
2023-07-27T14:55:46.223Z,21.50
2023-07-27T15:00:39.738Z,21.50
2023-07-27T15:05:33.302Z,21.50
2023-07-27T15:10:32.024Z,21.50
2023-07-27T15:15:28.013Z,21.40
2023-07-27T15:20:21.771Z,21.40
2023-07-27T15:25:15.162Z,21.40
2023-07-27T15:30:09.708Z,21.40
2023-07-27T15:35:04.759Z,21.30
2023-07-27T15:39:58.046Z,21.30
2023-07-27T15:44:51.479Z,21.30
2023-07-27T15:49:44.818Z,21.30
2023-07-27T15:54:39.431Z,21.30
2023-07-27T15:59:32.790Z,21.30
2023-07-27T16:04:26.115Z,21.20
2023-07-27T16:09:21.241Z,21.10
2023-07-27T16:14:15.968Z,21.00
2023-07-27T16:19:09.309Z,20.90
2023-07-27T16:24:04.107Z,20.80
2023-07-27T16:28:57.705Z,20.80
2023-07-27T16:33:52.429Z,20.80
2023-07-27T16:38:45.725Z,20.90
2023-07-27T16:43:39.315Z,20.80
2023-07-27T16:48:32.873Z,20.80
2023-07-27T16:53:28.253Z,20.90
2023-07-27T16:58:22.280Z,20.90
2023-07-27T17:03:15.677Z,20.90
2023-07-27T17:08:12.387Z,20.90
2023-07-27T17:13:07.118Z,20.70
2023-07-27T17:18:00.526Z,20.50
2023-07-27T17:22:53.905Z,20.40
2023-07-27T17:27:47.517Z,20.20
2023-07-27T17:32:43.024Z,20.10
2023-07-27T17:37:36.539Z,19.90
2023-07-27T17:42:29.852Z,19.90
2023-07-27T17:47:23.132Z,19.80
2023-07-27T17:52:17.816Z,19.80
2023-07-27T17:57:11.104Z,19.80
2023-07-27T18:02:07.602Z,19.80
2023-07-27T18:07:01.068Z,19.70
2023-07-27T18:11:55.803Z,19.70
2023-07-27T18:16:49.115Z,19.50
2023-07-27T18:21:42.425Z,19.40
2023-07-27T18:26:35.865Z,19.30
2023-07-27T18:31:30.611Z,19.20
2023-07-27T18:36:24.074Z,19.20
2023-07-27T18:41:18.305Z,19.10
2023-07-27T18:46:12.084Z,19.10
2023-07-27T18:51:06.828Z,19.00
2023-07-27T18:56:00.232Z,18.90
2023-07-27T19:00:53.799Z,18.80
2023-07-27T19:05:47.295Z,18.70
2023-07-27T19:10:42.069Z,18.60
2023-07-27T19:15:35.530Z,18.50
2023-07-27T19:20:28.990Z,18.50
2023-07-27T19:25:22.628Z,18.40
2023-07-27T19:30:18.927Z,18.40
2023-07-27T19:35:12.632Z,18.40
2023-07-27T19:40:07.142Z,18.30
2023-07-27T19:45:00.462Z,18.10
2023-07-27T19:50:05.126Z,17.90
2023-07-27T19:54:59.246Z,17.80
2023-07-27T19:59:56.030Z,17.70
2023-07-27T20:04:51.507Z,17.60
2023-07-27T20:09:46.199Z,17.60
2023-07-27T20:14:39.506Z,17.60
2023-07-27T20:19:35.861Z,17.50
2023-07-27T20:24:31.793Z,17.50
2023-07-27T20:29:33.757Z,17.30
2023-07-27T20:34:27.353Z,17.30
2023-07-27T20:39:22.560Z,17.30
2023-07-27T20:44:15.801Z,17.20
2023-07-27T20:49:10.524Z,17.20
2023-07-27T20:54:03.768Z,17.30
2023-07-27T20:58:58.529Z,17.20
2023-07-27T21:03:51.823Z,17.10
2023-07-27T21:08:46.497Z,17.00
2023-07-27T21:13:39.790Z,17.00
2023-07-27T21:18:33.731Z,17.00
2023-07-27T21:23:27.433Z,16.90
2023-07-27T21:28:22.283Z,16.80
2023-07-27T21:33:27.340Z,16.80
2023-07-27T21:38:21.579Z,16.90
2023-07-27T21:43:14.989Z,16.90
2023-07-27T21:48:10.016Z,17.00
2023-07-27T21:53:03.283Z,16.90
2023-07-27T21:57:58.439Z,16.80
2023-07-27T22:02:51.744Z,16.70
2023-07-27T22:07:46.559Z,16.70
2023-07-27T22:12:39.954Z,16.70
2023-07-27T22:17:33.266Z,16.70
2023-07-27T22:22:26.633Z,16.80
2023-07-27T22:27:21.348Z,16.80
2023-07-27T22:32:14.766Z,16.80
2023-07-27T22:37:08.217Z,16.80
2023-07-27T22:42:01.535Z,16.70
2023-07-27T22:46:56.226Z,16.60
2023-07-27T22:51:49.563Z,16.70
2023-07-27T22:56:42.888Z,16.60
2023-07-27T23:01:36.247Z,16.70
2023-07-27T23:06:31.475Z,16.70
2023-07-27T23:11:24.961Z,16.60
2023-07-27T23:16:18.248Z,16.60
2023-07-27T23:21:11.588Z,16.50
2023-07-27T23:26:06.270Z,16.50
2023-07-27T23:31:00.325Z,16.50
2023-07-27T23:35:53.765Z,16.60
2023-07-27T23:40:47.055Z,16.50
2023-07-27T23:45:41.779Z,16.50
2023-07-27T23:50:35.127Z,16.50
2023-07-27T23:55:28.488Z,16.40
